Time;durP1;ratioP1;P1;durP2;ratioP2;P2;SDS_P1;SDS_P2;PMS_P1;PMS_P2;Temp;Humidity;BMP_temperature;BMP_pressure;BME280_temperature;BME280_humidity;BME280_pressure;Samples;Min_cycle;Max_cycle;Signal;HPM_P1;HPM_P2
2021/03/22 00:01:06;;;;;;;6.70;5.10;;;;;;;;;;6211385;28;20409;-74
2021/03/22 00:04:08;;;;;;;8.18;5.43;;;;;;;;;;6214119;28;20138;-72
2021/03/22 00:07:09;;;;;;;6.78;5.32;;;;;;;;;;6215497;28;20046;-73
2021/03/22 00:10:11;;;;;;;12.68;5.40;;;;;;;;;;6214647;28;20217;-72
2021/03/22 00:13:15;;;;;;;8.82;5.28;;;;;;;;;;6214936;28;20089;-74
2021/03/22 00:16:17;;;;;;;9.18;5.07;;;;;;;;;;6213446;28;20141;-74
2021/03/22 00:19:18;;;;;;;7.60;5.22;;;;;;;;;;6214578;28;20070;-75
2021/03/22 00:22:19;;;;;;;7.22;5.22;;;;;;;;;;6214084;28;20065;-75
2021/03/22 00:25:21;;;;;;;8.05;5.00;;;;;;;;;;6204260;28;20103;-73
2021/03/22 00:28:24;;;;;;;12.93;6.07;;;;;;;;;;6212700;28;20125;-72
2021/03/22 00:31:26;;;;;;;8.35;5.20;;;;;;;;;;6212783;28;20062;-73
2021/03/22 00:34:27;;;;;;;7.35;4.97;;;;;;;;;;6204531;28;20508;-73
2021/03/22 00:37:28;;;;;;;8.55;5.40;;;;;;;;;;6217618;28;20130;-73
2021/03/22 00:40:32;;;;;;;8.77;6.07;;;;;;;;;;6214347;28;20073;-73
2021/03/22 00:43:34;;;;;;;9.18;6.22;;;;;;;;;;6210058;28;20091;-74
2021/03/22 00:46:35;;;;;;;10.35;5.70;;;;;;;;;;6210053;28;20109;-73
2021/03/22 00:49:36;;;;;;;7.10;5.55;;;;;;;;;;6203569;28;20126;-73
2021/03/22 00:52:38;;;;;;;9.07;6.15;;;;;;;;;;6210677;28;20073;-70
2021/03/22 00:55:39;;;;;;;49.40;25.00;;;;;;;;;;6213974;28;20486;-70
2021/03/22 00:58:41;;;;;;;150.13;71.72;;;;;;;;;;6210488;28;20092;-70
2021/03/22 01:01:42;;;;;;;94.13;42.15;;;;;;;;;;6209569;28;20141;-80
2021/03/22 01:04:44;;;;;;;133.82;57.55;;;;;;;;;;6210554;28;20144;-74
2021/03/22 01:07:45;;;;;;;107.35;38.65;;;;;;;;;;6213114;28;20053;-73
2021/03/22 01:10:49;;;;;;;143.43;59.78;;;;;;;;;;6213815;28;20097;-72
2021/03/22 01:13:53;;;;;;;28.25;15.50;;;;;;;;;;6209532;28;20057;-76
2021/03/22 01:16:54;;;;;;;10.50;7.03;;;;;;;;;;6205288;28;20544;-72
2021/03/22 01:19:55;;;;;;;8.55;6.07;;;;;;;;;;6203949;28;20053;-73
2021/03/22 01:22:56;;;;;;;12.13;6.18;;;;;;;;;;6208357;28;20492;-73
2021/03/22 01:25:57;;;;;;;8.32;6.55;;;;;;;;;;6206545;28;20054;-72
2021/03/22 01:28:59;;;;;;;10.30;6.50;;;;;;;;;;6202709;28;20161;-74
2021/03/22 01:32:01;;;;;;;11.85;7.35;;;;;;;;;;6204799;28;20073;-72
2021/03/22 01:35:03;;;;;;;13.43;7.15;;;;;;;;;;6207973;28;20070;-72
2021/03/22 01:38:05;;;;;;;10.32;7.35;;;;;;;;;;6211137;28;20185;-73
2021/03/22 01:41:14;;;;;;;9.13;6.43;;;;;;;;;;6210041;28;20124;-75
2021/03/22 01:44:19;;;;;;;11.52;6.97;;;;;;;;;;6210538;28;20141;-73
2021/03/22 01:47:22;;;;;;;10.43;7.18;;;;;;;;;;6211077;28;20128;-73
2021/03/22 01:50:25;;;;;;;11.07;7.28;;;;;;;;;;6211422;28;20515;-74
2021/03/22 01:53:26;;;;;;;12.70;8.20;;;;;;;;;;6210468;28;20096;-74
2021/03/22 01:56:32;;;;;;;10.18;7.30;;;;;;;;;;6203389;28;20092;-72
2021/03/22 01:59:34;;;;;;;12.75;7.43;;;;;;;;;;6200279;28;20125;-75
2021/03/22 02:02:36;;;;;;;10.32;6.97;;;;;;;;;;6525240;23;20118;-76
2021/03/22 02:05:39;;;;;;;12.40;7.88;;;;;;;;;;6257048;28;20488;-75
2021/03/22 02:08:43;;;;;;;11.95;7.65;;;;;;;;;;6257990;28;20485;-75
2021/03/22 02:11:44;;;;;;;14.90;8.50;;;;;;;;;;6260663;28;20061;-72
2021/03/22 02:14:47;;;;;;;10.60;7.55;;;;;;;;;;6259960;28;20110;-72
2021/03/22 02:18:01;;;;;;;11.23;7.38;;;;;;;;;;6257178;28;20049;-76
2021/03/22 02:21:21;;;;;;;;;;;;;;;;;;6249849;28;20136;-72
2021/03/22 02:24:44;;;;;;;11.30;7.72;;;;;;;;;;6260357;28;19927;-73
2021/03/22 02:28:09;;;;;;;12.68;7.80;;;;;;;;;;6246118;28;20458;-72
2021/03/22 02:31:34;;;;;;;12.02;7.82;;;;;;;;;;6263621;28;20088;-73
2021/03/22 02:34:41;;;;;;;16.63;8.00;;;;;;;;;;6258904;28;20596;-72
2021/03/22 02:37:49;;;;;;;12.63;7.68;;;;;;;;;;6256831;28;20159;-73
2021/03/22 02:40:52;;;;;;;11.82;7.80;;;;;;;;;;6256878;28;20055;-72
2021/03/22 02:44:02;;;;;;;12.23;8.52;;;;;;;;;;6259815;28;20607;-72
2021/03/22 02:47:05;;;;;;;14.48;8.48;;;;;;;;;;6262252;28;20447;-74
2021/03/22 02:50:11;;;;;;;10.95;7.93;;;;;;;;;;6266216;28;20099;-72
2021/03/22 02:53:29;;;;;;;11.20;7.72;;;;;;;;;;6254938;28;20523;-72
2021/03/22 02:56:38;;;;;;;18.13;8.50;;;;;;;;;;6261828;28;20091;-73
2021/03/22 02:59:44;;;;;;;12.50;8.70;;;;;;;;;;6254599;28;20463;-72
2021/03/22 03:02:45;;;;;;;14.35;8.82;;;;;;;;;;6255935;28;20144;-74
2021/03/22 03:05:50;;;;;;;15.13;9.57;;;;;;;;;;6257867;28;20535;-72
2021/03/22 03:08:51;;;;;;;13.68;9.40;;;;;;;;;;6244945;28;21801;-73
2021/03/22 03:11:53;;;;;;;12.25;8.50;;;;;;;;;;6254402;28;20143;-73
2021/03/22 03:14:56;;;;;;;13.85;9.48;;;;;;;;;;6251348;28;20132;-73
2021/03/22 03:17:57;;;;;;;14.90;9.02;;;;;;;;;;6254572;28;20142;-73
2021/03/22 03:20:59;;;;;;;12.60;8.32;;;;;;;;;;6252730;28;20135;-73
2021/03/22 03:24:01;;;;;;;12.77;9.32;;;;;;;;;;6251333;28;20047;-72
2021/03/22 03:27:03;;;;;;;14.30;9.57;;;;;;;;;;6255849;28;20143;-73
2021/03/22 03:30:05;;;;;;;14.77;9.82;;;;;;;;;;6255353;28;20099;-73
2021/03/22 03:33:07;;;;;;;13.13;9.02;;;;;;;;;;6252046;28;20144;-74
2021/03/22 03:36:10;;;;;;;16.08;9.32;;;;;;;;;;6256354;28;20088;-74
2021/03/22 03:39:11;;;;;;;13.30;9.15;;;;;;;;;;6255058;28;20073;-73
2021/03/22 03:42:12;;;;;;;13.90;10.20;;;;;;;;;;6256399;28;20104;-74
2021/03/22 03:45:15;;;;;;;14.82;10.00;;;;;;;;;;6253433;28;20085;-72
2021/03/22 03:48:19;;;;;;;13.80;9.60;;;;;;;;;;6248941;28;20200;-72
2021/03/22 03:51:21;;;;;;;16.33;9.97;;;;;;;;;;6254426;28;20045;-73
2021/03/22 03:54:22;;;;;;;14.07;9.77;;;;;;;;;;6244048;28;20057;-73
2021/03/22 03:57:23;;;;;;;15.20;9.65;;;;;;;;;;6254216;28;21535;-73
2021/03/22 04:00:27;;;;;;;18.90;10.50;;;;;;;;;;6258511;28;20066;-73
2021/03/22 04:03:31;;;;;;;15.75;10.35;;;;;;;;;;6250714;28;21023;-72
2021/03/22 04:06:34;;;;;;;14.00;9.80;;;;;;;;;;6253564;28;20061;-74
2021/03/22 04:09:35;;;;;;;14.75;9.70;;;;;;;;;;6253419;28;20132;-73
2021/03/22 04:12:36;;;;;;;16.67;10.65;;;;;;;;;;6254544;28;20076;-74
2021/03/22 04:15:37;;;;;;;15.80;10.13;;;;;;;;;;6250754;28;20133;-73
2021/03/22 04:18:39;;;;;;;16.75;10.73;;;;;;;;;;6251097;28;20515;-74
2021/03/22 04:21:41;;;;;;;15.43;10.07;;;;;;;;;;6254266;28;20130;-73
2021/03/22 04:24:42;;;;;;;15.55;10.55;;;;;;;;;;6259496;28;20082;-72
2021/03/22 04:27:43;;;;;;;18.63;10.85;;;;;;;;;;6252123;28;20073;-72
2021/03/22 04:30:44;;;;;;;17.77;11.60;;;;;;;;;;6257105;28;20080;-72
2021/03/22 04:33:47;;;;;;;16.63;11.15;;;;;;;;;;6266273;28;20452;-72
2021/03/22 04:36:48;;;;;;;17.33;11.43;;;;;;;;;;6251908;28;20073;-71
2021/03/22 04:39:49;;;;;;;18.23;10.57;;;;;;;;;;6263694;28;20136;-71
2021/03/22 04:42:51;;;;;;;16.98;10.02;;;;;;;;;;6255360;28;20127;-71
2021/03/22 04:45:52;;;;;;;16.58;10.40;;;;;;;;;;6254986;28;20163;-71
2021/03/22 04:48:53;;;;;;;17.30;11.32;;;;;;;;;;6257941;28;20187;-72
2021/03/22 04:51:55;;;;;;;20.42;11.90;;;;;;;;;;6259048;28;20049;-73
2021/03/22 04:54:56;;;;;;;19.77;11.93;;;;;;;;;;6253373;28;20057;-73
2021/03/22 04:57:57;;;;;;;16.55;10.15;;;;;;;;;;6255801;28;20149;-74
2021/03/22 05:00:58;;;;;;;17.63;10.45;;;;;;;;;;6258661;28;20373;-72
2021/03/22 05:03:59;;;;;;;15.48;11.05;;;;;;;;;;6256745;28;20133;-72
2021/03/22 05:07:01;;;;;;;16.25;9.85;;;;;;;;;;6259242;28;20037;-72
2021/03/22 05:10:04;;;;;;;14.13;9.90;;;;;;;;;;6264871;28;20049;-72
2021/03/22 05:13:07;;;;;;;16.42;10.15;;;;;;;;;;6258093;28;20498;-72
2021/03/22 05:16:08;;;;;;;14.43;8.85;;;;;;;;;;6252289;28;20049;-72
2021/03/22 05:19:09;;;;;;;13.18;8.63;;;;;;;;;;6254974;28;20474;-72
2021/03/22 05:22:11;;;;;;;16.45;10.40;;;;;;;;;;6260533;28;20155;-72
2021/03/22 05:25:13;;;;;;;17.83;9.88;;;;;;;;;;6259150;28;20072;-72
2021/03/22 05:28:14;;;;;;;15.05;9.07;;;;;;;;;;6263372;28;20072;-72
2021/03/22 05:31:15;;;;;;;15.30;10.52;;;;;;;;;;6260266;28;20116;-71
2021/03/22 05:34:17;;;;;;;16.88;10.52;;;;;;;;;;6257908;28;20071;-71
2021/03/22 05:37:19;;;;;;;16.90;9.13;;;;;;;;;;6260679;28;20049;-71
2021/03/22 05:40:23;;;;;;;19.80;10.23;;;;;;;;;;6257065;28;20481;-71
2021/03/22 05:43:42;;;;;;;19.65;10.38;;;;;;;;;;6257285;28;20143;-72
2021/03/22 05:46:48;;;;;;;19.75;10.43;;;;;;;;;;6254541;28;20162;-72
2021/03/22 05:50:05;;;;;;;16.52;10.40;;;;;;;;;;6254112;28;20064;-72
2021/03/22 05:53:18;;;;;;;19.67;11.15;;;;;;;;;;6252356;28;20049;-73
2021/03/22 05:56:26;;;;;;;16.65;10.50;;;;;;;;;;6264113;28;20088;-71
2021/03/22 05:59:34;;;;;;;17.23;10.30;;;;;;;;;;6252552;28;20055;-71
2021/03/22 06:02:40;;;;;;;19.92;11.90;;;;;;;;;;6255276;28;20148;-72
2021/03/22 06:05:44;;;;;;;22.52;10.68;;;;;;;;;;6255606;28;20547;-71
2021/03/22 06:08:51;;;;;;;17.88;11.60;;;;;;;;;;6253660;28;20142;-72
2021/03/22 06:11:59;;;;;;;17.83;11.27;;;;;;;;;;6255002;28;20139;-71
2021/03/22 06:15:06;;;;;;;17.92;10.85;;;;;;;;;;6262692;28;20045;-72
2021/03/22 06:18:16;;;;;;;19.20;11.48;;;;;;;;;;6260839;28;20061;-71
2021/03/22 06:21:17;;;;;;;18.70;11.27;;;;;;;;;;6252746;28;20135;-72
2021/03/22 06:24:21;;;;;;;18.15;11.75;;;;;;;;;;6256047;28;20128;-72
2021/03/22 06:27:23;;;;;;;17.35;11.40;;;;;;;;;;6252100;28;20518;-72
2021/03/22 06:30:26;;;;;;;18.73;10.95;;;;;;;;;;6245699;28;21347;-71
2021/03/22 06:33:30;;;;;;;16.48;10.75;;;;;;;;;;6250818;28;20060;-72
2021/03/22 06:36:32;;;;;;;;;;;;;;;;;;6252379;28;20080;-72
2021/03/22 06:39:34;;;;;;;19.83;11.65;;;;;;;;;;6241540;28;20069;-71
2021/03/22 06:42:35;;;;;;;17.45;10.80;;;;;;;;;;6259892;28;20476;-71
2021/03/22 06:45:39;;;;;;;18.75;10.55;;;;;;;;;;6253933;28;20441;-71
2021/03/22 06:48:40;;;;;;;18.70;10.95;;;;;;;;;;6260481;28;20450;-72
2021/03/22 06:51:41;;;;;;;19.67;11.25;;;;;;;;;;6250594;28;20091;-71
2021/03/22 06:54:45;;;;;;;18.50;11.43;;;;;;;;;;6252826;28;20483;-71
2021/03/22 06:57:51;;;;;;;22.13;11.33;;;;;;;;;;6253400;28;20057;-71
2021/03/22 07:00:52;;;;;;;22.85;11.35;;;;;;;;;;6256694;28;20931;-71
2021/03/22 07:03:53;;;;;;;20.00;10.43;;;;;;;;;;6252413;28;20143;-72
2021/03/22 07:07:11;;;;;;;18.60;11.27;;;;;;;;;;6250530;28;20143;-72
2021/03/22 07:10:17;;;;;;;16.92;10.82;;;;;;;;;;6248834;28;20081;-73
2021/03/22 07:13:22;;;;;;;19.35;12.10;;;;;;;;;;6260526;28;20124;-72
2021/03/22 07:16:25;;;;;;;22.48;11.73;;;;;;;;;;6258707;28;20041;-71
2021/03/22 07:19:26;;;;;;;19.67;11.32;;;;;;;;;;6248312;28;20049;-70
2021/03/22 07:22:28;;;;;;;17.23;10.95;;;;;;;;;;6251856;28;20084;-71
2021/03/22 07:25:36;;;;;;;19.80;12.23;;;;;;;;;;6254296;28;20068;-71
2021/03/22 07:28:46;;;;;;;21.85;12.18;;;;;;;;;;6246163;28;20572;-70
2021/03/22 07:31:53;;;;;;;16.02;10.93;;;;;;;;;;6245942;28;20524;-72
2021/03/22 07:35:03;;;;;;;22.83;12.50;;;;;;;;;;6250144;28;20088;-72
2021/03/22 07:38:10;;;;;;;22.48;11.98;;;;;;;;;;6251476;28;20076;-73
2021/03/22 07:41:19;;;;;;;20.75;12.30;;;;;;;;;;6247295;28;20136;-72
2021/03/22 07:44:37;;;;;;;16.52;11.13;;;;;;;;;;6247397;28;20075;-71
2021/03/22 07:48:04;;;;;;;20.92;11.88;;;;;;;;;;6252135;28;20088;-71
2021/03/22 07:51:16;;;;;;;16.80;12.05;;;;;;;;;;6232565;28;20080;-72
2021/03/22 07:54:29;;;;;;;18.30;12.02;;;;;;;;;;6254890;28;20041;-72
2021/03/22 07:57:39;;;;;;;19.05;12.18;;;;;;;;;;6254307;28;20045;-72
2021/03/22 08:00:46;;;;;;;16.33;10.95;;;;;;;;;;6260946;28;20071;-71
2021/03/22 08:04:01;;;;;;;20.40;12.68;;;;;;;;;;6252378;28;20457;-71
2021/03/22 08:07:03;;;;;;;;;;;;;;;;;;6252758;28;20155;-71
2021/03/22 08:10:41;;;;;;;22.98;11.88;;;;;;;;;;6256821;28;20026;-72
2021/03/22 08:13:48;;;;;;;21.38;12.27;;;;;;;;;;6265694;28;20067;-72
2021/03/22 08:17:28;;;;;;;29.38;13.38;;;;;;;;;;6257854;28;20264;-72
2021/03/22 08:20:33;;;;;;;19.25;12.85;;;;;;;;;;6253309;28;20605;-73
2021/03/22 08:23:42;;;;;;;18.33;12.90;;;;;;;;;;6255260;28;20104;-72
2021/03/22 08:26:51;;;;;;;18.02;12.35;;;;;;;;;;6251559;28;20542;-73
2021/03/22 08:29:56;;;;;;;19.25;12.70;;;;;;;;;;6245980;28;20060;-72
2021/03/22 08:33:03;;;;;;;20.92;13.20;;;;;;;;;;6253608;28;20460;-72
2021/03/22 08:36:06;;;;;;;18.73;12.80;;;;;;;;;;6253505;28;20045;-74
2021/03/22 08:39:20;;;;;;;21.35;13.40;;;;;;;;;;6246628;28;20044;-72
2021/03/22 08:42:24;;;;;;;21.42;13.18;;;;;;;;;;6259000;28;20215;-72
2021/03/22 08:45:29;;;;;;;23.17;11.82;;;;;;;;;;6254059;28;20069;-72
2021/03/22 08:48:30;;;;;;;;;;;;;;;;;;6254586;28;20482;-73
2021/03/22 08:51:34;;;;;;;27.10;14.10;;;;;;;;;;6249146;28;20017;-72
2021/03/22 08:54:36;;;;;;;20.98;13.10;;;;;;;;;;6252696;28;20158;-73
2021/03/22 08:57:45;;;;;;;19.90;13.90;;;;;;;;;;6252361;28;20080;-73
2021/03/22 09:00:48;;;;;;;22.00;13.68;;;;;;;;;;6254515;28;20045;-73
2021/03/22 09:03:51;;;;;;;22.93;13.47;;;;;;;;;;6253345;28;20400;-73
2021/03/22 09:07:03;;;;;;;23.70;13.68;;;;;;;;;;6253080;28;20056;-73
2021/03/22 09:10:25;;;;;;;17.73;14.20;;;;;;;;;;6251398;28;20124;-73
2021/03/22 09:13:30;;;;;;;17.20;13.45;;;;;;;;;;6263895;28;20144;-73
2021/03/22 09:16:38;;;;;;;22.67;14.68;;;;;;;;;;6260191;28;20127;-72
2021/03/22 09:19:43;;;;;;;24.23;13.80;;;;;;;;;;6254404;28;20048;-71
2021/03/22 09:22:48;;;;;;;18.45;13.93;;;;;;;;;;6255519;28;20053;-72
2021/03/22 09:25:55;;;;;;;17.55;13.45;;;;;;;;;;6244607;28;20068;-73
2021/03/22 09:29:30;;;;;;;20.65;13.88;;;;;;;;;;6255384;28;20052;-73
2021/03/22 09:32:43;;;;;;;23.85;14.20;;;;;;;;;;6254380;28;20100;-73
2021/03/22 09:36:11;;;;;;;20.92;13.60;;;;;;;;;;6255899;28;20625;-72
2021/03/22 09:39:47;;;;;;;20.02;13.85;;;;;;;;;;6256789;28;20497;-72
2021/03/22 09:43:10;;;;;;;18.45;13.20;;;;;;;;;;6256691;28;20152;-72
2021/03/22 09:46:34;;;;;;;18.13;13.57;;;;;;;;;;6260528;28;20205;-71
2021/03/22 09:53:19;;;;;;;20.65;13.30;;;;;;;;;;6279332;27;21492;-72
2021/03/22 09:56:29;;;;;;;20.73;13.15;;;;;;;;;;6261468;28;20176;-72
2021/03/22 09:59:33;;;;;;;18.33;12.88;;;;;;;;;;6233662;28;20212;-73
2021/03/22 10:02:41;;;;;;;17.77;12.55;;;;;;;;;;6243581;28;20052;-72
2021/03/22 10:05:56;;;;;;;18.25;11.90;;;;;;;;;;6224823;28;20057;-73
2021/03/22 10:08:59;;;;;;;15.55;11.10;;;;;;;;;;6226779;28;20100;-73
2021/03/22 10:12:09;;;;;;;15.95;11.30;;;;;;;;;;6227224;28;20500;-73
2021/03/22 10:15:24;;;;;;;13.13;10.57;;;;;;;;;;6221841;28;20362;-73
2021/03/22 10:18:33;;;;;;;13.40;9.98;;;;;;;;;;6228492;28;20084;-73
2021/03/22 10:21:38;;;;;;;16.25;10.63;;;;;;;;;;6227230;28;20133;-72
2021/03/22 10:24:48;;;;;;;14.00;9.65;;;;;;;;;;6229270;28;20568;-72
2021/03/22 10:27:59;;;;;;;11.82;9.65;;;;;;;;;;6220156;28;20037;-73
2021/03/22 10:31:02;;;;;;;17.50;9.88;;;;;;;;;;6233400;28;20106;-72
2021/03/22 10:34:03;;;;;;;17.27;9.85;;;;;;;;;;6224979;28;20136;-72
2021/03/22 10:37:06;;;;;;;12.85;9.63;;;;;;;;;;6228131;28;20124;-72
2021/03/22 10:40:24;;;;;;;15.05;9.70;;;;;;;;;;6231281;28;20041;-72
2021/03/22 10:43:29;;;;;;;12.98;10.40;;;;;;;;;;6226524;28;20192;-72
2021/03/22 10:46:32;;;;;;;17.98;8.15;;;;;;;;;;6219659;28;20058;-72
2021/03/22 10:49:34;;;;;;;10.45;7.43;;;;;;;;;;6227748;28;20087;-72
2021/03/22 10:52:35;;;;;;;9.63;8.10;;;;;;;;;;6229443;28;20042;-72
2021/03/22 10:55:38;;;;;;;8.52;7.20;;;;;;;;;;6230306;28;20069;-72
2021/03/22 10:58:40;;;;;;;7.75;6.25;;;;;;;;;;6228677;28;20065;-74
2021/03/22 11:01:41;;;;;;;11.57;6.72;;;;;;;;;;6226035;28;20061;-73
2021/03/22 11:04:42;;;;;;;7.85;6.38;;;;;;;;;;6211415;28;20038;-73
2021/03/22 11:07:53;;;;;;;9.18;5.60;;;;;;;;;;6209308;28;20134;-73
2021/03/22 11:11:01;;;;;;;6.43;4.90;;;;;;;;;;6207703;28;20092;-73
2021/03/22 11:14:05;;;;;;;9.05;5.38;;;;;;;;;;6200704;28;20148;-73
2021/03/22 11:17:14;;;;;;;6.65;4.10;;;;;;;;;;6202117;28;20464;-73
2021/03/22 11:20:16;;;;;;;5.05;3.70;;;;;;;;;;6207150;28;20136;-74
2021/03/22 11:23:25;;;;;;;5.50;4.10;;;;;;;;;;6212161;28;20053;-73
2021/03/22 11:26:29;;;;;;;8.93;4.35;;;;;;;;;;6213385;28;20058;-73
2021/03/22 11:29:30;;;;;;;11.30;5.05;;;;;;;;;;6212933;28;20121;-73
2021/03/22 11:32:33;;;;;;;4.72;3.50;;;;;;;;;;6202242;28;20568;-73
2021/03/22 11:35:35;;;;;;;6.75;3.72;;;;;;;;;;6206112;28;20172;-73
2021/03/22 11:38:43;;;;;;;4.85;3.90;;;;;;;;;;6212065;28;20080;-73
2021/03/22 11:42:01;;;;;;;6.47;3.90;;;;;;;;;;6210294;28;20050;-74
2021/03/22 11:45:23;;;;;;;6.43;3.50;;;;;;;;;;6206932;28;20137;-74
2021/03/22 11:48:31;;;;;;;5.35;3.60;;;;;;;;;;6208081;28;20731;-73
2021/03/22 11:51:32;;;;;;;7.97;3.80;;;;;;;;;;6205803;28;20136;-74
2021/03/22 11:54:47;;;;;;;5.70;3.60;;;;;;;;;;6207812;28;20575;-73
2021/03/22 11:57:51;;;;;;;7.13;3.72;;;;;;;;;;6209863;28;20127;-72
2021/03/22 12:00:53;;;;;;;6.45;3.05;;;;;;;;;;6212245;28;20137;-70
2021/03/22 12:04:12;;;;;;;4.38;3.08;;;;;;;;;;6212146;28;20054;-71
2021/03/22 12:07:13;;;;;;;7.43;3.45;;;;;;;;;;6219895;28;20059;-70
2021/03/22 12:10:20;;;;;;;4.38;3.58;;;;;;;;;;6216595;28;20057;-73
2021/03/22 12:13:22;;;;;;;6.30;4.05;;;;;;;;;;6197541;28;20050;-73
2021/03/22 12:16:25;;;;;;;10.65;4.40;;;;;;;;;;6205970;28;20106;-73
2021/03/22 12:19:32;;;;;;;5.80;3.75;;;;;;;;;;6210656;28;20052;-75
2021/03/22 12:22:34;;;;;;;6.93;3.90;;;;;;;;;;6206846;28;20050;-72
2021/03/22 12:25:36;;;;;;;4.80;4.05;;;;;;;;;;6205052;28;20459;-73
2021/03/22 12:28:53;;;;;;;6.63;4.32;;;;;;;;;;6207624;28;20046;-73
2021/03/22 12:31:54;;;;;;;8.57;3.80;;;;;;;;;;6206797;28;20042;-74
2021/03/22 12:34:56;;;;;;;8.75;3.85;;;;;;;;;;6211226;28;20081;-74
2021/03/22 12:37:57;;;;;;;6.80;3.88;;;;;;;;;;6211910;28;20558;-74
2021/03/22 12:40:58;;;;;;;6.00;4.00;;;;;;;;;;6215214;28;20129;-73
2021/03/22 12:44:03;;;;;;;8.80;4.18;;;;;;;;;;6216284;28;20559;-70
2021/03/22 12:47:04;;;;;;;14.27;5.07;;;;;;;;;;6213502;28;20053;-70
2021/03/22 12:50:12;;;;;;;4.90;4.05;;;;;;;;;;6215225;28;20065;-71
2021/03/22 12:53:13;;;;;;;7.07;4.38;;;;;;;;;;6195922;28;20568;-69
2021/03/22 12:56:15;;;;;;;5.10;4.60;;;;;;;;;;6205595;28;20060;-70
2021/03/22 12:59:31;;;;;;;6.18;3.90;;;;;;;;;;6213088;28;20156;-72
2021/03/22 13:02:33;;;;;;;5.88;3.97;;;;;;;;;;6213853;28;20488;-71
2021/03/22 13:05:34;;;;;;;5.13;4.10;;;;;;;;;;6214427;28;20544;-71
2021/03/22 13:08:35;;;;;;;5.25;4.50;;;;;;;;;;6209204;28;20144;-71
2021/03/22 13:11:39;;;;;;;4.53;3.72;;;;;;;;;;6205043;28;20611;-71
2021/03/22 13:14:41;;;;;;;5.20;4.10;;;;;;;;;;6210197;28;20416;-71
2021/03/22 13:17:43;;;;;;;6.95;4.00;;;;;;;;;;6203485;28;20075;-71
2021/03/22 13:20:45;;;;;;;7.00;4.45;;;;;;;;;;6207428;28;20073;-71
2021/03/22 13:23:47;;;;;;;7.93;4.28;;;;;;;;;;6211270;28;20141;-71
2021/03/22 13:26:48;;;;;;;8.18;4.30;;;;;;;;;;6219548;28;20073;-72
2021/03/22 13:29:50;;;;;;;7.10;4.95;;;;;;;;;;6211367;28;20056;-71
2021/03/22 13:32:52;;;;;;;6.05;4.88;;;;;;;;;;6210554;28;20322;-71
2021/03/22 13:35:54;;;;;;;6.57;4.70;;;;;;;;;;6213297;28;20061;-72
2021/03/22 13:38:55;;;;;;;6.78;4.93;;;;;;;;;;6213211;28;20077;-70
2021/03/22 13:41:56;;;;;;;9.10;4.93;;;;;;;;;;6204713;28;20141;-71
2021/03/22 13:44:58;;;;;;;7.00;4.15;;;;;;;;;;6206132;28;20134;-73
2021/03/22 13:47:59;;;;;;;8.63;4.32;;;;;;;;;;6209405;28;20050;-70
2021/03/22 13:51:01;;;;;;;13.90;5.10;;;;;;;;;;6209148;28;20069;-69
2021/03/22 13:54:03;;;;;;;4.90;4.40;;;;;;;;;;6197929;28;20046;-69
2021/03/22 13:57:05;;;;;;;5.82;4.70;;;;;;;;;;6197753;28;20058;-73
2021/03/22 14:00:10;;;;;;;5.47;4.32;;;;;;;;;;6211621;28;20465;-70
2021/03/22 14:03:11;;;;;;;5.80;4.57;;;;;;;;;;6206784;28;20094;-71
2021/03/22 14:06:12;;;;;;;5.68;5.07;;;;;;;;;;6212584;28;20084;-72
2021/03/22 14:09:13;;;;;;;11.32;4.47;;;;;;;;;;6203628;28;20084;-70
2021/03/22 14:12:15;;;;;;;6.20;4.65;;;;;;;;;;6208854;28;20109;-68
2021/03/22 14:15:21;;;;;;;10.05;5.30;;;;;;;;;;6201082;28;20415;-69
2021/03/22 14:18:24;;;;;;;11.30;4.57;;;;;;;;;;6204103;28;20073;-73
2021/03/22 14:21:25;;;;;;;11.27;5.78;;;;;;;;;;6208708;28;20568;-74
2021/03/22 14:24:27;;;;;;;14.25;5.70;;;;;;;;;;6213450;28;20049;-75
2021/03/22 14:27:28;;;;;;;7.22;5.00;;;;;;;;;;6215558;28;20176;-73
2021/03/22 14:30:33;;;;;;;9.13;5.50;;;;;;;;;;6203362;28;20117;-74
2021/03/22 14:33:34;;;;;;;7.90;5.30;;;;;;;;;;6208565;28;20076;-71
2021/03/22 14:36:35;;;;;;;7.32;5.20;;;;;;;;;;6209125;28;20560;-72
2021/03/22 14:39:37;;;;;;;6.82;4.88;;;;;;;;;;6214152;28;20038;-73
2021/03/22 14:42:38;;;;;;;11.63;5.53;;;;;;;;;;6213193;28;20172;-74
2021/03/22 14:45:40;;;;;;;7.53;5.25;;;;;;;;;;6217583;28;20075;-73
2021/03/22 14:48:41;;;;;;;9.55;5.20;;;;;;;;;;6212644;28;20097;-73
2021/03/22 14:51:42;;;;;;;9.98;4.93;;;;;;;;;;6210121;28;20172;-74
2021/03/22 14:54:43;;;;;;;6.55;5.03;;;;;;;;;;6206628;28;20523;-74
2021/03/22 14:57:44;;;;;;;7.40;5.30;;;;;;;;;;6213988;28;20190;-74
2021/03/22 15:00:46;;;;;;;6.32;4.90;;;;;;;;;;6213773;28;20053;-74
2021/03/22 15:03:48;;;;;;;8.90;4.80;;;;;;;;;;6206158;28;20459;-74
2021/03/22 15:06:49;;;;;;;7.13;5.15;;;;;;;;;;6201568;28;20477;-74
2021/03/22 15:09:50;;;;;;;9.70;5.05;;;;;;;;;;6207178;28;20054;-74
2021/03/22 15:12:51;;;;;;;4.50;4.10;;;;;;;;;;6204911;28;20135;-74
2021/03/22 15:15:53;;;;;;;9.07;5.20;;;;;;;;;;6208506;28;20044;-74
2021/03/22 15:18:54;;;;;;;7.85;5.35;;;;;;;;;;6213899;28;20408;-74
2021/03/22 15:21:57;;;;;;;7.53;5.28;;;;;;;;;;6197327;28;20469;-75
2021/03/22 15:24:58;;;;;;;5.00;4.50;;;;;;;;;;6209557;28;20057;-74
2021/03/22 15:28:00;;;;;;;6.50;5.20;;;;;;;;;;6208302;28;20620;-74
2021/03/22 15:31:04;;;;;;;6.03;5.25;;;;;;;;;;6204535;28;20055;-74
2021/03/22 15:34:05;;;;;;;7.85;4.97;;;;;;;;;;6204879;28;20066;-74
2021/03/22 15:37:08;;;;;;;8.68;5.50;;;;;;;;;;6208133;28;20091;-74
2021/03/22 15:40:12;;;;;;;8.57;6.10;;;;;;;;;;6202792;28;20484;-74
2021/03/22 15:43:13;;;;;;;7.90;5.70;;;;;;;;;;6206878;28;20436;-75
2021/03/22 15:46:15;;;;;;;9.85;5.20;;;;;;;;;;6212538;28;20564;-74
2021/03/22 15:49:16;;;;;;;9.13;5.87;;;;;;;;;;6203868;28;20149;-75
2021/03/22 15:52:17;;;;;;;5.90;5.00;;;;;;;;;;6203782;28;20077;-74
2021/03/22 15:55:21;;;;;;;5.82;5.18;;;;;;;;;;6205224;28;20146;-74
2021/03/22 15:58:22;;;;;;;6.93;5.43;;;;;;;;;;6202143;28;20082;-75
2021/03/22 16:01:25;;;;;;;6.28;5.68;;;;;;;;;;6201765;28;20039;-74
2021/03/22 16:04:27;;;;;;;9.30;5.30;;;;;;;;;;6209812;28;20061;-74
2021/03/22 16:07:28;;;;;;;7.55;5.13;;;;;;;;;;6209916;28;20527;-73
2021/03/22 16:10:32;;;;;;;6.75;5.38;;;;;;;;;;6216145;28;20645;-75
2021/03/22 16:13:34;;;;;;;7.43;5.55;;;;;;;;;;6220764;28;20054;-73
2021/03/22 16:16:36;;;;;;;8.30;5.88;;;;;;;;;;6217070;28;20073;-73
2021/03/22 16:19:37;;;;;;;7.90;5.32;;;;;;;;;;6208909;28;20188;-73
2021/03/22 16:22:39;;;;;;;8.48;5.82;;;;;;;;;;6207354;28;20081;-73
2021/03/22 16:25:42;;;;;;;12.48;5.63;;;;;;;;;;6209871;28;20160;-73
2021/03/22 16:28:43;;;;;;;11.38;6.28;;;;;;;;;;6203823;28;20049;-73
2021/03/22 16:31:47;;;;;;;9.93;5.30;;;;;;;;;;6209281;28;20061;-73
2021/03/22 16:34:48;;;;;;;12.13;6.00;;;;;;;;;;6212478;28;20080;-73
2021/03/22 16:37:50;;;;;;;9.18;5.05;;;;;;;;;;6205233;28;20062;-74
2021/03/22 16:40:53;;;;;;;12.98;5.97;;;;;;;;;;6207984;28;20614;-75
2021/03/22 16:43:54;;;;;;;11.75;6.15;;;;;;;;;;6206203;28;20054;-74
2021/03/22 16:46:57;;;;;;;9.82;5.20;;;;;;;;;;6204606;28;20803;-74
2021/03/22 16:49:58;;;;;;;10.27;5.85;;;;;;;;;;6206197;28;20052;-74
2021/03/22 16:52:59;;;;;;;8.35;5.50;;;;;;;;;;6203381;28;20081;-74
2021/03/22 16:56:02;;;;;;;8.93;5.22;;;;;;;;;;6207914;28;20050;-75
2021/03/22 16:59:03;;;;;;;8.93;6.22;;;;;;;;;;6206708;28;20053;-74
2021/03/22 17:02:05;;;;;;;8.32;5.32;;;;;;;;;;6207663;28;20115;-73
2021/03/22 17:05:08;;;;;;;8.38;5.70;;;;;;;;;;6203212;28;20080;-73
2021/03/22 17:08:11;;;;;;;12.88;6.20;;;;;;;;;;6206397;28;20711;-73
2021/03/22 17:11:12;;;;;;;10.35;5.93;;;;;;;;;;6202515;28;20072;-72
2021/03/22 17:14:14;;;;;;;10.77;5.97;;;;;;;;;;6205147;28;20464;-74
2021/03/22 17:17:21;;;;;;;9.45;5.55;;;;;;;;;;6209152;28;20597;-72
2021/03/22 17:20:23;;;;;;;10.55;5.78;;;;;;;;;;6200951;28;20442;-74
2021/03/22 17:23:24;;;;;;;8.25;5.45;;;;;;;;;;6211716;28;20144;-74
2021/03/22 17:26:25;;;;;;;7.25;5.47;;;;;;;;;;6206530;28;20058;-74
2021/03/22 17:29:26;;;;;;;9.35;5.32;;;;;;;;;;6203638;28;21603;-73
2021/03/22 17:32:28;;;;;;;7.18;5.45;;;;;;;;;;6205834;28;20401;-74
2021/03/22 17:35:30;;;;;;;11.65;5.57;;;;;;;;;;6201106;28;20129;-74
2021/03/22 17:38:31;;;;;;;10.90;5.90;;;;;;;;;;6203050;28;20053;-74
2021/03/22 17:41:32;;;;;;;8.27;5.53;;;;;;;;;;6208413;28;20049;-73
2021/03/22 17:44:33;;;;;;;7.50;5.18;;;;;;;;;;6204637;28;20065;-72
2021/03/22 17:47:36;;;;;;;10.07;5.68;;;;;;;;;;6204660;28;20646;-72
2021/03/22 17:50:38;;;;;;;13.68;6.55;;;;;;;;;;6203414;28;20533;-73
2021/03/22 17:53:39;;;;;;;9.38;5.80;;;;;;;;;;6207162;28;20133;-73
2021/03/22 17:56:40;;;;;;;13.15;6.75;;;;;;;;;;6210664;28;20070;-73
2021/03/22 17:59:41;;;;;;;12.30;5.95;;;;;;;;;;6204303;28;20068;-73
2021/03/22 18:02:43;;;;;;;11.27;5.43;;;;;;;;;;6197980;28;20129;-72
2021/03/22 18:05:45;;;;;;;9.65;5.15;;;;;;;;;;6201349;28;21314;-72
2021/03/22 18:08:46;;;;;;;8.10;5.43;;;;;;;;;;6199042;28;20081;-72
2021/03/22 18:11:47;;;;;;;6.15;5.05;;;;;;;;;;6210975;28;20528;-73
2021/03/22 18:14:48;;;;;;;10.48;6.10;;;;;;;;;;6217467;28;20121;-72